createdAt,value
2019-01-23T00:01:58.927Z,-0.90
2019-01-23T00:04:29.611Z,-0.90
2019-01-23T00:09:30.406Z,-0.90
2019-01-23T00:12:01.122Z,-0.90
2019-01-23T00:14:31.776Z,-0.90
2019-01-23T00:17:02.487Z,-0.90
2019-01-23T00:19:33.209Z,-0.90
2019-01-23T00:22:03.852Z,-1.00
2019-01-23T00:24:34.537Z,-1.00
2019-01-23T00:27:05.168Z,-0.90
2019-01-23T00:29:35.822Z,-0.90
2019-01-23T00:32:06.453Z,-0.90
2019-01-23T00:34:37.097Z,-0.90
2019-01-23T00:37:07.740Z,-0.90
2019-01-23T00:39:38.461Z,-1.00
2019-01-23T00:42:09.174Z,-1.00
2019-01-23T00:44:39.834Z,-0.90
2019-01-23T00:47:10.538Z,-1.00
2019-01-23T00:49:41.268Z,-1.00
2019-01-23T00:52:11.977Z,-1.00
2019-01-23T00:54:42.633Z,-1.00
2019-01-23T00:57:13.286Z,-1.00
2019-01-23T00:59:44.006Z,-1.00
2019-01-23T01:02:14.645Z,-1.00
2019-01-23T01:04:45.308Z,-1.00
2019-01-23T01:07:16.116Z,-1.00
2019-01-23T01:09:46.768Z,-1.00
2019-01-23T01:12:17.409Z,-1.00
2019-01-23T01:14:48.081Z,-1.00
2019-01-23T01:17:18.716Z,-1.00
2019-01-23T01:19:49.460Z,-1.00
2019-01-23T01:22:20.101Z,-1.00
2019-01-23T01:24:50.824Z,-1.00
2019-01-23T01:27:21.461Z,-1.00
2019-01-23T01:29:52.232Z,-1.10
2019-01-23T01:32:22.939Z,-1.00
2019-01-23T01:34:53.584Z,-1.10
2019-01-23T01:37:24.171Z,-1.10
2019-01-23T01:39:54.908Z,-1.10
2019-01-23T01:42:25.556Z,-1.10
2019-01-23T01:47:26.158Z,-1.10
2019-01-23T01:49:56.897Z,-1.10
2019-01-23T01:52:27.544Z,-1.00
2019-01-23T01:54:58.281Z,-1.20
2019-01-23T01:57:29.040Z,-1.10
2019-01-23T01:59:59.652Z,-1.20
2019-01-23T02:02:30.298Z,-1.20
2019-01-23T02:05:01.039Z,-1.20
2019-01-23T02:07:31.750Z,-1.20
2019-01-23T02:10:02.403Z,-1.20
2019-01-23T02:12:34.193Z,-1.20
2019-01-23T02:15:06.633Z,-1.20
2019-01-23T02:17:37.265Z,-1.30
2019-01-23T02:20:14.249Z,-1.30
2019-01-23T02:22:44.891Z,-1.40
2019-01-23T02:25:15.625Z,-1.40
2019-01-23T02:27:47.034Z,-1.50
2019-01-23T02:30:19.681Z,-1.50
2019-01-23T02:32:50.391Z,-1.50
2019-01-23T02:35:21.126Z,-1.50
2019-01-23T02:37:51.873Z,-1.50
2019-01-23T02:40:23.943Z,-1.40
2019-01-23T02:42:54.857Z,-1.50
2019-01-23T02:45:25.513Z,-1.50
2019-01-23T02:47:56.171Z,-1.50
2019-01-23T02:50:26.918Z,-1.50
2019-01-23T02:52:57.564Z,-1.50
2019-01-23T02:55:28.311Z,-1.50
2019-01-23T02:57:59.045Z,-1.50
2019-01-23T03:00:29.690Z,-1.50
2019-01-23T03:03:00.412Z,-1.50
2019-01-23T03:05:31.065Z,-1.50
2019-01-23T03:08:01.721Z,-1.50
2019-01-23T03:10:32.438Z,-1.50
2019-01-23T03:13:03.174Z,-1.60
2019-01-23T03:15:33.812Z,-1.60
2019-01-23T03:18:04.470Z,-1.60
2019-01-23T03:20:35.202Z,-1.60
2019-01-23T03:23:05.947Z,-1.60
2019-01-23T03:25:36.666Z,-1.60
2019-01-23T03:28:07.426Z,-1.60
2019-01-23T03:30:38.146Z,-1.60
2019-01-23T03:33:08.869Z,-1.60
2019-01-23T03:35:39.589Z,-1.60
2019-01-23T03:38:10.314Z,-1.60
2019-01-23T03:40:41.026Z,-1.60
2019-01-23T03:43:11.761Z,-1.70
2019-01-23T03:45:42.405Z,-1.70
2019-01-23T03:48:13.141Z,-1.70
2019-01-23T03:50:43.777Z,-1.70
2019-01-23T03:53:14.426Z,-1.80
2019-01-23T03:55:45.137Z,-1.80
2019-01-23T03:58:15.798Z,-1.80
2019-01-23T04:00:46.513Z,-1.80
2019-01-23T04:03:17.252Z,-1.90
2019-01-23T04:05:47.918Z,-1.90
2019-01-23T04:08:18.651Z,-2.00
2019-01-23T04:10:49.358Z,-2.00
2019-01-23T04:13:20.091Z,-2.10
2019-01-23T04:15:50.722Z,-2.10
2019-01-23T04:18:21.455Z,-2.10
2019-01-23T04:20:52.093Z,-2.20
2019-01-23T04:23:22.763Z,-2.30
2019-01-23T04:25:53.475Z,-2.30
2019-01-23T04:28:24.209Z,-2.40
2019-01-23T04:30:54.854Z,-2.30
2019-01-23T04:33:25.518Z,-2.30
2019-01-23T04:35:56.250Z,-2.40
2019-01-23T04:38:26.917Z,-2.40
2019-01-23T04:40:57.619Z,-2.40
2019-01-23T04:43:28.270Z,-2.50
2019-01-23T04:45:58.907Z,-2.60
2019-01-23T04:48:29.510Z,-2.70
2019-01-23T04:51:18.015Z,-2.70
2019-01-23T04:53:49.593Z,-2.70
2019-01-23T04:56:20.325Z,-2.80
2019-01-23T04:58:50.979Z,-2.90
2019-01-23T05:01:21.918Z,-3.00
2019-01-23T05:03:52.670Z,-3.10
2019-01-23T05:06:23.388Z,-3.00
2019-01-23T05:08:55.060Z,-3.10
2019-01-23T05:11:25.761Z,-3.10
2019-01-23T05:13:56.419Z,-3.10
2019-01-23T05:16:27.049Z,-3.20
2019-01-23T05:18:58.733Z,-3.20
2019-01-23T05:21:29.377Z,-3.30
2019-01-23T05:24:00.113Z,-3.30
2019-01-23T05:26:30.821Z,-3.30
2019-01-23T05:29:02.561Z,-3.30
2019-01-23T05:31:33.265Z,-3.40
2019-01-23T05:34:05.363Z,-3.50
2019-01-23T05:36:36.091Z,-3.50
2019-01-23T05:39:08.892Z,-3.50
2019-01-23T05:41:41.254Z,-3.60
2019-01-23T05:44:14.018Z,-3.70
2019-01-23T05:46:44.637Z,-3.70
2019-01-23T05:49:16.292Z,-3.70
2019-01-23T05:51:48.553Z,-3.70
2019-01-23T05:54:19.232Z,-3.80
2019-01-23T05:56:49.978Z,-3.80
2019-01-23T05:59:20.866Z,-3.80
2019-01-23T06:01:51.589Z,-3.90
2019-01-23T06:04:22.437Z,-4.00
2019-01-23T06:06:53.159Z,-4.10
2019-01-23T06:09:23.974Z,-4.10
2019-01-23T06:11:54.646Z,-4.10
2019-01-23T06:14:25.402Z,-4.20
2019-01-23T06:16:56.067Z,-4.20
2019-01-23T06:19:26.798Z,-4.20
2019-01-23T06:21:57.558Z,-4.20
2019-01-23T06:24:28.327Z,-4.30
2019-01-23T06:26:59.036Z,-4.40
2019-01-23T06:29:29.735Z,-4.40
2019-01-23T06:32:00.483Z,-4.50
2019-01-23T06:34:31.231Z,-4.50
2019-01-23T06:37:01.934Z,-4.60
2019-01-23T06:39:32.681Z,-4.60
2019-01-23T06:42:03.413Z,-4.60
2019-01-23T06:44:34.220Z,-4.70
2019-01-23T06:47:04.937Z,-4.70
2019-01-23T06:49:35.686Z,-4.70
2019-01-23T06:52:06.447Z,-4.40
2019-01-23T06:54:37.201Z,-4.30
2019-01-23T06:57:07.881Z,-4.60
2019-01-23T06:59:38.553Z,-4.60
2019-01-23T07:02:11.160Z,-2.70
2019-01-23T07:04:41.840Z,-3.10
2019-01-23T07:07:12.892Z,-3.60
2019-01-23T07:09:43.634Z,-3.90
2019-01-23T07:12:14.360Z,-3.10
2019-01-23T07:14:45.003Z,-2.80
2019-01-23T07:17:15.732Z,-4.20
2019-01-23T07:19:47.737Z,-4.60
2019-01-23T07:22:18.468Z,-4.80
2019-01-23T07:24:50.586Z,-4.90
2019-01-23T07:27:21.254Z,-4.80
2019-01-23T07:29:51.921Z,-4.80
2019-01-23T07:32:22.681Z,-4.80
2019-01-23T07:34:53.425Z,-4.70
2019-01-23T07:37:25.376Z,-4.70
2019-01-23T07:39:56.109Z,-4.70
2019-01-23T07:42:27.847Z,-4.80
2019-01-23T07:44:58.577Z,-4.80
2019-01-23T07:47:29.310Z,-4.80
2019-01-23T07:49:59.972Z,-4.80
2019-01-23T07:52:30.701Z,-4.80
2019-01-23T07:55:01.357Z,-4.80
2019-01-23T07:57:34.107Z,-4.80
2019-01-23T08:00:06.327Z,-4.80
2019-01-23T08:02:36.990Z,-4.70
2019-01-23T08:05:08.925Z,-4.50
2019-01-23T08:07:39.654Z,-4.50
2019-01-23T08:10:12.713Z,-4.30
2019-01-23T08:12:44.857Z,-4.40
2019-01-23T08:15:21.453Z,-4.40
2019-01-23T08:17:52.363Z,-4.40
2019-01-23T08:20:23.531Z,-4.40
2019-01-23T08:22:54.468Z,-4.40
2019-01-23T08:25:26.290Z,-4.10
2019-01-23T08:27:57.104Z,-3.90
2019-01-23T08:30:28.169Z,-4.10
2019-01-23T08:32:58.950Z,-4.10
2019-01-23T08:35:29.784Z,-4.10
2019-01-23T08:38:00.606Z,-3.80
2019-01-23T08:40:31.294Z,-3.90
2019-01-23T08:43:02.129Z,-3.80
2019-01-23T08:45:32.960Z,-3.60
2019-01-23T08:48:03.768Z,-3.30
2019-01-23T08:50:45.036Z,-3.60
2019-01-23T08:53:15.764Z,-3.50
2019-01-23T08:55:53.230Z,-3.60
2019-01-23T08:58:18.982Z,-3.40
2019-01-23T09:00:49.708Z,-3.50
2019-01-23T09:03:20.466Z,-3.30
2019-01-23T09:05:51.267Z,-3.10
2019-01-23T09:08:22.027Z,-2.80
2019-01-23T09:10:52.787Z,-2.70
2019-01-23T09:13:23.586Z,-2.60
2019-01-23T09:15:54.317Z,-2.50
2019-01-23T09:18:25.068Z,-2.10
2019-01-23T09:20:55.693Z,-1.90
2019-01-23T09:23:26.329Z,-1.70
2019-01-23T09:25:57.037Z,-1.50
2019-01-23T09:28:27.630Z,-1.40
2019-01-23T09:31:48.392Z,-1.50
2019-01-23T09:34:45.033Z,-1.30
2019-01-23T09:37:51.079Z,-1.10
2019-01-23T09:40:33.521Z,-1.00
2019-01-23T09:43:42.403Z,-0.90
2019-01-23T09:46:25.321Z,-0.90
2019-01-23T09:49:48.719Z,0.00
2019-01-23T09:53:03.122Z,0.50
2019-01-23T09:55:33.825Z,1.00
2019-01-23T09:58:07.509Z,0.80
2019-01-23T10:00:38.105Z,1.80
2019-01-23T10:03:08.661Z,1.60
2019-01-23T10:05:39.287Z,1.70
2019-01-23T10:08:09.976Z,0.90
2019-01-23T10:10:40.511Z,1.30
2019-01-23T10:13:11.230Z,1.00
2019-01-23T10:15:53.974Z,1.70
2019-01-23T10:18:24.631Z,1.30
2019-01-23T10:20:55.333Z,1.30
2019-01-23T10:23:25.977Z,1.80
2019-01-23T10:25:56.665Z,1.80
2019-01-23T10:28:27.240Z,1.90
2019-01-23T10:30:58.835Z,1.90
2019-01-23T10:33:29.571Z,2.40
2019-01-23T10:36:00.173Z,2.20
2019-01-23T10:38:30.826Z,2.20
2019-01-23T10:41:01.532Z,2.10
2019-01-23T10:43:32.187Z,2.50
2019-01-23T10:46:02.997Z,2.70
2019-01-23T10:48:37.999Z,2.70
2019-01-23T10:51:05.965Z,2.40
2019-01-23T10:53:36.606Z,2.30
2019-01-23T10:56:07.297Z,2.70
2019-01-23T10:58:37.922Z,2.60
2019-01-23T11:01:13.363Z,2.20
2019-01-23T11:03:40.978Z,1.40
2019-01-23T11:06:11.702Z,1.90
2019-01-23T11:08:42.432Z,2.30
2019-01-23T11:11:12.981Z,2.20
2019-01-23T11:13:44.030Z,2.90
2019-01-23T11:16:15.689Z,3.00
2019-01-23T11:18:46.295Z,2.60
2019-01-23T11:21:17.731Z,2.10
2019-01-23T11:23:48.519Z,1.80
2019-01-23T11:26:19.232Z,1.80
2019-01-23T11:28:49.969Z,2.10
2019-01-23T11:31:20.708Z,2.40
2019-01-23T11:33:51.409Z,1.80
2019-01-23T11:36:22.060Z,1.80
2019-01-23T11:38:52.861Z,1.50
2019-01-23T11:41:23.424Z,1.30
2019-01-23T11:43:54.044Z,1.00
2019-01-23T11:46:24.784Z,1.90
2019-01-23T11:48:55.417Z,1.90
2019-01-23T11:51:26.065Z,1.60
2019-01-23T11:53:56.700Z,1.80
2019-01-23T11:56:27.278Z,1.90
2019-01-23T11:58:57.898Z,1.80
2019-01-23T12:01:28.634Z,1.70
2019-01-23T12:03:59.375Z,1.40
2019-01-23T12:06:30.110Z,1.20
2019-01-23T12:09:00.825Z,1.90
2019-01-23T12:11:31.538Z,1.80
2019-01-23T12:14:02.166Z,1.40
2019-01-23T12:16:32.890Z,1.60
2019-01-23T12:19:03.585Z,1.50
2019-01-23T12:21:34.304Z,1.60
2019-01-23T12:24:04.932Z,1.40
2019-01-23T12:26:35.577Z,1.60
2019-01-23T12:29:07.089Z,1.60
2019-01-23T12:31:37.805Z,1.30
2019-01-23T12:34:08.357Z,1.10
2019-01-23T12:36:39.012Z,1.10
2019-01-23T12:39:09.749Z,1.00
2019-01-23T12:41:40.473Z,0.90
2019-01-23T12:44:11.392Z,1.20
2019-01-23T12:46:42.080Z,1.10
2019-01-23T12:49:12.712Z,1.40
2019-01-23T12:51:43.322Z,1.50
2019-01-23T12:54:13.960Z,1.40
2019-01-23T12:56:44.690Z,1.10
2019-01-23T12:59:15.389Z,1.10
2019-01-23T13:01:47.025Z,1.00
2019-01-23T13:04:17.919Z,1.20
2019-01-23T13:06:48.638Z,1.10
2019-01-23T13:09:19.346Z,1.20
2019-01-23T13:11:50.114Z,1.10
2019-01-23T13:14:20.853Z,1.10
2019-01-23T13:16:52.085Z,0.70
2019-01-23T13:19:22.716Z,0.70
2019-01-23T13:21:53.440Z,0.70
2019-01-23T13:24:24.102Z,0.70
2019-01-23T13:26:54.941Z,0.50
2019-01-23T13:29:26.196Z,0.30
2019-01-23T13:31:57.056Z,0.40
2019-01-23T13:34:28.116Z,0.60
2019-01-23T13:36:58.756Z,0.60
2019-01-23T13:39:29.545Z,0.70
2019-01-23T13:42:00.816Z,0.70
2019-01-23T13:44:32.029Z,0.70
2019-01-23T13:47:04.015Z,0.80
2019-01-23T13:49:34.902Z,0.80
2019-01-23T13:52:06.162Z,0.70
2019-01-23T13:54:37.105Z,0.50
2019-01-23T13:57:08.600Z,0.70
2019-01-23T13:59:40.424Z,0.70
2019-01-23T14:02:13.079Z,0.80
2019-01-23T14:04:44.763Z,0.80
2019-01-23T14:07:16.470Z,0.60
2019-01-23T14:09:48.098Z,0.40
2019-01-23T14:12:19.690Z,0.40
2019-01-23T14:14:50.834Z,0.60
2019-01-23T14:17:22.157Z,0.80
2019-01-23T14:19:53.753Z,0.50
2019-01-23T14:22:26.252Z,0.60
2019-01-23T14:24:57.872Z,0.60
2019-01-23T14:27:28.952Z,0.70
2019-01-23T14:30:00.322Z,0.70
2019-01-23T14:32:31.771Z,0.70
2019-01-23T14:35:02.836Z,0.70
2019-01-23T14:37:34.329Z,0.60
2019-01-23T14:40:06.798Z,0.70
2019-01-23T14:42:39.037Z,0.80
2019-01-23T14:45:11.733Z,0.90
2019-01-23T14:47:43.117Z,0.90
2019-01-23T14:50:15.413Z,0.90
2019-01-23T14:52:47.622Z,0.80
2019-01-23T14:55:20.169Z,0.60
2019-01-23T14:57:52.161Z,0.60
2019-01-23T15:00:26.520Z,0.60
2019-01-23T15:02:58.784Z,0.50
2019-01-23T15:05:31.041Z,0.40
2019-01-23T15:08:02.912Z,0.30
2019-01-23T15:10:35.349Z,0.30
2019-01-23T15:13:08.083Z,0.50
2019-01-23T15:15:42.190Z,0.40
2019-01-23T15:18:14.729Z,0.40
2019-01-23T15:20:46.733Z,0.40
2019-01-23T15:23:19.015Z,0.30
2019-01-23T15:25:50.962Z,0.30
2019-01-23T15:28:23.956Z,0.30
2019-01-23T15:30:56.405Z,0.20
2019-01-23T15:33:28.725Z,0.20
2019-01-23T15:36:03.039Z,0.20
2019-01-23T15:38:37.001Z,0.10
2019-01-23T15:41:11.008Z,0.10
2019-01-23T15:43:44.473Z,0.00
2019-01-23T15:46:18.278Z,0.00
2019-01-23T15:48:53.006Z,0.00
2019-01-23T15:51:27.272Z,0.00
2019-01-23T15:54:00.569Z,0.00
2019-01-23T15:56:34.488Z,-0.10
2019-01-23T15:59:08.937Z,-0.10
2019-01-23T16:01:42.790Z,-0.10
2019-01-23T16:06:59.649Z,-0.10
2019-01-23T16:09:32.462Z,-0.20
2019-01-23T16:12:06.083Z,-0.20
2019-01-23T16:14:39.121Z,-0.20
2019-01-23T16:17:12.342Z,-0.20
2019-01-23T16:19:46.576Z,-0.30
2019-01-23T16:22:19.407Z,-0.30
2019-01-23T16:24:52.785Z,-0.20
2019-01-23T16:27:27.564Z,-0.20
2019-01-23T16:30:01.542Z,-0.30
2019-01-23T16:32:35.992Z,-0.30
2019-01-23T16:35:10.263Z,-0.30
2019-01-23T16:37:45.620Z,-0.30
2019-01-23T16:40:20.201Z,-0.30
2019-01-23T16:42:53.609Z,-0.30
2019-01-23T16:45:27.758Z,-0.30
2019-01-23T16:48:01.682Z,-0.30
2019-01-23T16:50:34.942Z,-0.30
2019-01-23T16:53:09.589Z,-0.30
2019-01-23T16:55:41.985Z,-0.30
2019-01-23T16:58:15.724Z,-0.40
2019-01-23T17:00:48.837Z,-0.60
2019-01-23T17:03:22.564Z,-0.70
2019-01-23T17:05:55.634Z,-0.70
2019-01-23T17:08:29.821Z,-0.70
2019-01-23T17:11:04.453Z,-0.70
2019-01-23T17:13:38.567Z,-0.70
2019-01-23T17:16:13.112Z,-0.80
2019-01-23T17:18:47.019Z,-0.80
2019-01-23T17:21:27.730Z,-0.90
2019-01-23T17:24:11.380Z,-0.80
2019-01-23T17:26:45.494Z,-0.80
2019-01-23T17:29:19.209Z,-0.90
2019-01-23T17:31:52.785Z,-1.00
2019-01-23T17:34:26.865Z,-1.00
2019-01-23T17:37:01.789Z,-1.00
2019-01-23T17:39:35.669Z,-1.00
2019-01-23T17:42:10.689Z,-1.00
2019-01-23T17:44:45.401Z,-1.00
2019-01-23T17:47:19.656Z,-1.10
2019-01-23T17:49:53.333Z,-1.10
2019-01-23T17:52:28.005Z,-1.10
2019-01-23T17:57:36.548Z,-1.10
2019-01-23T18:00:15.338Z,-1.20
2019-01-23T18:02:52.857Z,-1.20
2019-01-23T18:05:26.713Z,-1.20
2019-01-23T18:08:02.935Z,-1.20
2019-01-23T18:10:38.258Z,-1.20
2019-01-23T18:13:11.122Z,-1.20
2019-01-23T18:15:46.438Z,-1.20
2019-01-23T18:18:22.390Z,-1.20
2019-01-23T18:20:58.060Z,-1.20
2019-01-23T18:23:33.016Z,-1.20
2019-01-23T18:26:07.754Z,-1.20
2019-01-23T18:28:43.229Z,-1.20
2019-01-23T18:31:37.902Z,-1.20
2019-01-23T18:34:44.790Z,-1.30
2019-01-23T18:37:29.786Z,-1.30
2019-01-23T18:40:29.069Z,-1.30
2019-01-23T18:43:47.590Z,-1.20
2019-01-23T18:46:45.090Z,-1.20
2019-01-23T18:49:59.077Z,-1.20
2019-01-23T18:52:35.070Z,-1.20
2019-01-23T18:55:12.667Z,-1.20
2019-01-23T18:57:48.355Z,-1.20
2019-01-23T19:00:24.998Z,-1.20
2019-01-23T19:03:06.727Z,-1.20
2019-01-23T19:05:37.462Z,-1.20
2019-01-23T19:08:13.931Z,-1.20
2019-01-23T19:10:49.783Z,-1.20
2019-01-23T19:13:25.787Z,-1.20
2019-01-23T19:16:01.998Z,-1.20
2019-01-23T19:18:37.396Z,-1.20
2019-01-23T19:21:12.887Z,-1.30
2019-01-23T19:23:52.746Z,-1.30
2019-01-23T19:26:28.665Z,-1.20
2019-01-23T19:29:04.393Z,-1.20
2019-01-23T19:31:40.140Z,-1.30
2019-01-23T19:34:15.717Z,-1.30
2019-01-23T19:36:52.536Z,-1.30
2019-01-23T19:39:27.866Z,-1.20
2019-01-23T19:42:04.012Z,-1.20
2019-01-23T19:44:40.196Z,-1.30
2019-01-23T19:47:15.567Z,-1.30
2019-01-23T19:49:50.542Z,-1.30
2019-01-23T19:52:26.404Z,-1.30
2019-01-23T19:55:01.051Z,-1.30
2019-01-23T19:57:38.390Z,-1.30
2019-01-23T20:00:18.146Z,-1.30
2019-01-23T20:02:53.325Z,-1.30
2019-01-23T20:05:30.820Z,-1.30
2019-01-23T20:08:06.652Z,-1.20
2019-01-23T20:10:42.850Z,-1.30
2019-01-23T20:13:18.329Z,-1.20
2019-01-23T20:15:54.052Z,-1.30
2019-01-23T20:18:30.037Z,-1.30
2019-01-23T20:21:05.910Z,-1.30
2019-01-23T20:23:41.378Z,-1.30
2019-01-23T20:26:16.922Z,-1.20
2019-01-23T20:28:53.054Z,-1.30
2019-01-23T20:31:28.405Z,-1.40
2019-01-23T20:34:03.647Z,-1.40
2019-01-23T20:36:39.041Z,-1.50
2019-01-23T20:39:15.237Z,-1.50
2019-01-23T20:41:50.866Z,-1.50
2019-01-23T20:44:26.085Z,-1.60
2019-01-23T20:47:01.248Z,-1.60
2019-01-23T20:49:36.465Z,-1.80
2019-01-23T20:52:11.809Z,-1.70
2019-01-23T20:54:46.589Z,-1.70
2019-01-23T20:57:21.025Z,-1.70
2019-01-23T20:59:55.785Z,-1.80
2019-01-23T21:02:31.187Z,-1.80
2019-01-23T21:05:07.936Z,-1.80
2019-01-23T21:07:43.357Z,-1.80
2019-01-23T21:10:20.250Z,-1.80
2019-01-23T21:12:54.464Z,-1.80
2019-01-23T21:15:30.888Z,-1.90
2019-01-23T21:18:06.721Z,-1.80
2019-01-23T21:20:42.851Z,-1.70
2019-01-23T21:23:18.672Z,-1.70
2019-01-23T21:25:53.452Z,-1.80
2019-01-23T21:28:27.660Z,-1.90
2019-01-23T21:31:01.945Z,-1.80
2019-01-23T21:33:42.051Z,-1.80
2019-01-23T21:36:12.931Z,-1.80
2019-01-23T21:38:47.141Z,-1.80
2019-01-23T21:41:21.862Z,-1.70
2019-01-23T21:43:55.797Z,-1.90
2019-01-23T21:46:29.633Z,-1.80
2019-01-23T21:49:03.437Z,-1.80
2019-01-23T21:51:36.745Z,-1.80
2019-01-23T21:54:10.220Z,-1.80
2019-01-23T21:56:43.589Z,-1.70
2019-01-23T21:59:16.368Z,-1.80
2019-01-23T22:01:49.429Z,-1.80
2019-01-23T22:04:21.082Z,-1.80
2019-01-23T22:06:52.767Z,-1.80
2019-01-23T22:09:24.726Z,-1.90
2019-01-23T22:12:00.653Z,-1.80
2019-01-23T22:14:32.602Z,-1.80
2019-01-23T22:17:04.366Z,-1.90
2019-01-23T22:19:36.711Z,-1.90
2019-01-23T22:22:09.157Z,-1.90
2019-01-23T22:24:41.085Z,-1.90
2019-01-23T22:27:12.581Z,-1.90
2019-01-23T22:29:44.938Z,-1.80
2019-01-23T22:32:17.156Z,-1.80
2019-01-23T22:34:49.056Z,-1.80
2019-01-23T22:37:21.022Z,-1.80
2019-01-23T22:39:51.913Z,-1.90
2019-01-23T22:42:22.682Z,-1.80
2019-01-23T22:44:53.575Z,-1.80
2019-01-23T22:47:25.141Z,-1.80
2019-01-23T22:49:56.053Z,-1.90
2019-01-23T22:52:26.821Z,-1.90
2019-01-23T22:54:57.549Z,-1.90
2019-01-23T22:57:28.285Z,-1.80
2019-01-23T22:59:58.918Z,-1.90
2019-01-23T23:02:29.650Z,-1.90
2019-01-23T23:05:00.389Z,-1.90
2019-01-23T23:07:32.081Z,-1.90
2019-01-23T23:10:02.803Z,-1.90
2019-01-23T23:12:33.533Z,-1.90
2019-01-23T23:15:04.560Z,-2.00
2019-01-23T23:17:35.221Z,-2.00
2019-01-23T23:20:06.687Z,-2.10
2019-01-23T23:22:37.437Z,-2.10
2019-01-23T23:25:08.488Z,-2.20
2019-01-23T23:27:39.445Z,-2.20
2019-01-23T23:30:11.997Z,-2.30
2019-01-23T23:32:42.830Z,-2.30
2019-01-23T23:35:13.653Z,-2.40
2019-01-23T23:37:44.301Z,-2.40
2019-01-23T23:40:15.133Z,-2.40
2019-01-23T23:42:45.780Z,-2.40
2019-01-23T23:45:16.640Z,-2.30
2019-01-23T23:47:47.479Z,-2.30
2019-01-23T23:50:18.136Z,-2.40
2019-01-23T23:52:48.895Z,-2.40
2019-01-23T23:55:19.545Z,-2.40
2019-01-23T23:57:50.281Z,-2.30
